createdAt,value
2019-01-24T00:01:06.941Z,12.78
2019-01-24T00:02:12.939Z,12.95
2019-01-24T00:03:19.063Z,12.98
2019-01-24T00:04:25.148Z,13.20
2019-01-24T00:05:32.702Z,12.93
2019-01-24T00:06:38.638Z,12.15
2019-01-24T00:07:44.723Z,12.70
2019-01-24T00:08:50.703Z,12.95
2019-01-24T00:09:56.812Z,13.15
2019-01-24T00:11:02.862Z,13.62
2019-01-24T00:12:08.923Z,12.90
2019-01-24T00:13:15.061Z,12.80
2019-01-24T00:14:21.215Z,13.25
2019-01-24T00:15:27.383Z,13.70
2019-01-24T00:16:35.642Z,13.85
2019-01-24T00:17:41.732Z,13.40
2019-01-24T00:18:48.082Z,13.43
2019-01-24T00:19:54.076Z,12.03
2019-01-24T00:21:00.199Z,13.48
2019-01-24T00:22:06.915Z,13.38
2019-01-24T00:23:14.037Z,13.62
2019-01-24T00:24:20.040Z,13.70
2019-01-24T00:25:26.098Z,13.48
2019-01-24T00:26:32.227Z,13.48
2019-01-24T00:27:38.349Z,13.30
2019-01-24T00:28:44.314Z,13.28
2019-01-24T00:29:50.366Z,12.88
2019-01-24T00:30:56.395Z,13.40
2019-01-24T00:32:02.377Z,12.55
2019-01-24T00:33:08.443Z,12.53
2019-01-24T00:34:15.538Z,13.28
2019-01-24T00:35:21.644Z,12.50
2019-01-24T00:36:27.772Z,13.32
2019-01-24T00:37:33.749Z,13.58
2019-01-24T00:38:39.779Z,12.80
2019-01-24T00:39:45.782Z,13.10
2019-01-24T00:40:52.484Z,13.05
2019-01-24T00:41:58.463Z,12.47
2019-01-24T00:43:04.685Z,13.72
2019-01-24T00:44:10.688Z,13.32
2019-01-24T00:45:17.306Z,12.18
2019-01-24T00:46:23.347Z,12.53
2019-01-24T00:47:31.522Z,12.15
2019-01-24T00:48:37.592Z,12.43
2019-01-24T00:49:43.643Z,13.13
2019-01-24T00:50:49.663Z,13.43
2019-01-24T00:51:56.843Z,13.35
2019-01-24T00:53:04.181Z,13.58
2019-01-24T00:54:10.191Z,12.98
2019-01-24T00:55:16.531Z,12.20
2019-01-24T00:56:22.803Z,12.60
2019-01-24T00:57:28.936Z,12.73
2019-01-24T00:58:34.928Z,13.08
2019-01-24T00:59:40.957Z,13.48
2019-01-24T01:00:47.103Z,13.65
2019-01-24T01:01:53.143Z,12.93
2019-01-24T01:02:59.151Z,12.30
2019-01-24T01:04:05.342Z,12.73
2019-01-24T01:05:13.518Z,12.60
2019-01-24T01:06:19.664Z,13.10
2019-01-24T01:07:25.709Z,12.13
2019-01-24T01:08:31.680Z,12.13
2019-01-24T01:09:37.792Z,11.25
2019-01-24T01:10:43.810Z,12.25
2019-01-24T01:11:49.952Z,11.95
2019-01-24T01:12:55.942Z,11.97
2019-01-24T01:14:01.883Z,11.75
2019-01-24T01:15:26.823Z,12.25
2019-01-24T01:16:33.036Z,11.35
2019-01-24T01:17:39.178Z,12.00
2019-01-24T01:18:45.365Z,12.30
2019-01-24T01:19:51.505Z,11.48
2019-01-24T01:20:57.752Z,12.25
2019-01-24T01:22:04.152Z,11.50
2019-01-24T01:23:12.476Z,11.45
2019-01-24T01:24:18.476Z,11.88
2019-01-24T01:25:24.730Z,12.00
2019-01-24T01:26:30.863Z,10.55
2019-01-24T01:27:37.074Z,11.60
2019-01-24T01:28:43.183Z,11.25
2019-01-24T01:29:49.405Z,11.83
2019-01-24T01:30:55.415Z,11.90
2019-01-24T01:32:01.371Z,12.18
2019-01-24T01:33:09.057Z,10.95
2019-01-24T01:34:15.082Z,11.48
2019-01-24T01:35:21.245Z,11.38
2019-01-24T01:36:27.276Z,11.73
2019-01-24T01:37:33.291Z,11.90
2019-01-24T01:38:39.314Z,11.20
2019-01-24T01:39:45.324Z,11.30
2019-01-24T01:40:51.247Z,11.35
2019-01-24T01:41:57.363Z,10.53
2019-01-24T01:43:03.542Z,12.63
2019-01-24T01:44:09.539Z,11.45
2019-01-24T01:45:19.465Z,11.53
2019-01-24T01:46:26.526Z,12.13
2019-01-24T01:47:32.467Z,13.13
2019-01-24T01:48:38.371Z,11.20
2019-01-24T01:49:45.045Z,11.63
2019-01-24T01:50:51.114Z,11.03
2019-01-24T01:51:57.092Z,12.07
2019-01-24T01:53:03.109Z,11.80
2019-01-24T01:54:09.154Z,11.70
2019-01-24T01:55:15.775Z,12.07
2019-01-24T01:56:21.856Z,11.78
2019-01-24T01:57:27.925Z,12.05
2019-01-24T01:58:33.905Z,12.30
2019-01-24T01:59:42.722Z,11.83
2019-01-24T02:00:48.668Z,11.12
2019-01-24T02:01:54.691Z,12.80
2019-01-24T02:03:00.835Z,12.93
2019-01-24T02:04:06.921Z,11.88
2019-01-24T02:05:13.231Z,12.53
2019-01-24T02:06:19.300Z,12.03
2019-01-24T02:07:25.451Z,11.93
2019-01-24T02:08:31.419Z,12.93
2019-01-24T02:09:37.397Z,12.70
2019-01-24T02:10:43.527Z,12.58
2019-01-24T02:11:49.563Z,12.40
2019-01-24T02:12:55.572Z,12.37
2019-01-24T02:14:01.551Z,12.70
2019-01-24T02:15:09.290Z,12.40
2019-01-24T02:16:15.642Z,12.55
2019-01-24T02:17:21.546Z,11.85
2019-01-24T02:18:27.780Z,13.03
2019-01-24T02:19:34.012Z,12.40
2019-01-24T02:20:40.165Z,12.88
2019-01-24T02:21:47.606Z,13.28
2019-01-24T02:22:54.316Z,13.03
2019-01-24T02:24:00.516Z,13.00
2019-01-24T02:25:08.322Z,13.25
2019-01-24T02:26:15.567Z,13.08
2019-01-24T02:27:21.576Z,12.45
2019-01-24T02:28:27.603Z,14.15
2019-01-24T02:29:33.695Z,12.55
2019-01-24T02:30:39.679Z,12.53
2019-01-24T02:31:45.816Z,12.55
2019-01-24T02:32:51.935Z,13.10
2019-01-24T02:33:57.983Z,12.35
2019-01-24T02:35:04.162Z,11.15
2019-01-24T02:36:10.317Z,12.18
2019-01-24T02:37:16.229Z,13.40
2019-01-24T02:38:22.204Z,11.95
2019-01-24T02:39:28.239Z,12.78
2019-01-24T02:40:34.334Z,12.33
2019-01-24T02:41:40.248Z,12.47
2019-01-24T02:42:46.395Z,11.70
2019-01-24T02:43:52.403Z,12.15
2019-01-24T02:44:58.478Z,12.43
2019-01-24T02:46:04.589Z,11.75
2019-01-24T02:47:10.566Z,11.68
2019-01-24T02:48:16.763Z,12.43
2019-01-24T02:49:23.940Z,11.78
2019-01-24T02:50:30.027Z,11.93
2019-01-24T02:51:36.056Z,12.03
2019-01-24T02:52:42.073Z,11.38
2019-01-24T02:53:48.075Z,12.25
2019-01-24T02:54:54.083Z,11.65
2019-01-24T02:56:00.280Z,12.88
2019-01-24T02:57:06.286Z,11.63
2019-01-24T02:58:12.465Z,11.30
2019-01-24T02:59:18.468Z,12.43
2019-01-24T03:00:24.870Z,12.45
2019-01-24T03:01:30.895Z,12.30
2019-01-24T03:02:36.937Z,12.00
2019-01-24T03:03:43.334Z,12.15
2019-01-24T03:04:49.331Z,11.78
2019-01-24T03:05:55.455Z,12.03
2019-01-24T03:07:01.480Z,12.58
2019-01-24T03:08:07.602Z,12.15
2019-01-24T03:09:13.771Z,11.75
2019-01-24T03:10:19.990Z,12.40
2019-01-24T03:11:36.917Z,12.28
2019-01-24T03:12:43.291Z,11.97
2019-01-24T03:13:49.317Z,11.85
2019-01-24T03:14:55.378Z,12.00
2019-01-24T03:16:01.551Z,11.88
2019-01-24T03:17:07.582Z,11.48
2019-01-24T03:18:13.625Z,12.30
2019-01-24T03:19:19.658Z,11.75
2019-01-24T03:20:25.726Z,12.53
2019-01-24T03:21:31.842Z,11.97
2019-01-24T03:22:37.891Z,12.00
2019-01-24T03:23:44.019Z,12.15
2019-01-24T03:24:50.076Z,11.50
2019-01-24T03:25:57.264Z,12.23
2019-01-24T03:27:03.393Z,12.55
2019-01-24T03:28:09.394Z,12.63
2019-01-24T03:29:16.616Z,12.03
2019-01-24T03:30:23.664Z,12.47
2019-01-24T03:31:29.820Z,12.13
2019-01-24T03:32:35.801Z,12.63
2019-01-24T03:33:41.851Z,13.22
2019-01-24T03:34:48.063Z,12.93
2019-01-24T03:35:55.621Z,12.28
2019-01-24T03:37:01.632Z,12.03
2019-01-24T03:38:07.688Z,12.50
2019-01-24T03:39:13.792Z,12.40
2019-01-24T03:40:19.888Z,11.83
2019-01-24T03:41:25.975Z,13.50
2019-01-24T03:42:32.083Z,13.45
2019-01-24T03:43:38.035Z,12.65
2019-01-24T03:44:44.047Z,13.38
2019-01-24T03:45:50.443Z,12.35
2019-01-24T03:46:56.466Z,12.93
2019-01-24T03:48:02.655Z,12.20
2019-01-24T03:49:08.697Z,12.30
2019-01-24T03:50:17.372Z,12.20
2019-01-24T03:51:23.592Z,11.73
2019-01-24T03:52:29.681Z,12.60
2019-01-24T03:53:35.768Z,12.95
2019-01-24T03:54:41.770Z,11.97
2019-01-24T03:55:48.259Z,11.48
2019-01-24T03:56:54.425Z,11.40
2019-01-24T03:58:00.550Z,11.10
2019-01-24T03:59:06.782Z,10.75
2019-01-24T04:00:16.171Z,11.40
2019-01-24T04:01:22.264Z,12.23
2019-01-24T04:02:28.392Z,11.43
2019-01-24T04:03:34.513Z,11.30
2019-01-24T04:04:40.583Z,10.72
2019-01-24T04:05:46.771Z,10.93
2019-01-24T04:06:55.045Z,10.00
2019-01-24T04:08:01.067Z,10.35
2019-01-24T04:09:09.401Z,10.38
2019-01-24T04:10:17.575Z,10.53
2019-01-24T04:11:23.681Z,10.23
2019-01-24T04:12:29.678Z,10.58
2019-01-24T04:13:35.729Z,9.40
2019-01-24T04:14:41.784Z,9.25
2019-01-24T04:15:47.805Z,9.40
2019-01-24T04:16:53.912Z,9.95
2019-01-24T04:17:59.908Z,10.90
2019-01-24T04:19:06.263Z,9.50
2019-01-24T04:20:12.833Z,9.53
2019-01-24T04:21:18.999Z,10.65
2019-01-24T04:22:25.117Z,10.05
2019-01-24T04:23:31.142Z,11.28
2019-01-24T04:24:37.301Z,10.58
2019-01-24T04:25:43.433Z,10.32
2019-01-24T04:26:49.518Z,10.48
2019-01-24T04:27:55.528Z,10.58
2019-01-24T04:29:01.705Z,9.83
2019-01-24T04:30:09.734Z,10.60
2019-01-24T04:31:15.725Z,10.45
2019-01-24T04:32:21.847Z,11.08
2019-01-24T04:33:27.912Z,10.05
2019-01-24T04:34:33.983Z,10.78
2019-01-24T04:35:40.020Z,10.65
2019-01-24T04:36:46.047Z,10.95
2019-01-24T04:37:54.692Z,10.60
2019-01-24T04:39:00.874Z,11.15
2019-01-24T04:40:09.154Z,10.05
2019-01-24T04:41:15.174Z,10.45
2019-01-24T04:42:21.307Z,10.82
2019-01-24T04:43:27.374Z,11.05
2019-01-24T04:44:33.287Z,10.55
2019-01-24T04:45:39.450Z,10.20
2019-01-24T04:46:45.469Z,11.30
2019-01-24T04:47:51.604Z,11.38
2019-01-24T04:49:01.291Z,10.82
2019-01-24T04:50:08.146Z,11.15
2019-01-24T04:51:14.164Z,11.03
2019-01-24T04:52:20.224Z,11.08
2019-01-24T04:53:26.244Z,10.48
2019-01-24T04:54:32.306Z,11.25
2019-01-24T04:55:38.306Z,11.08
2019-01-24T04:56:44.374Z,10.60
2019-01-24T04:57:51.122Z,11.50
2019-01-24T04:58:57.423Z,11.20
2019-01-24T05:00:03.505Z,10.60
2019-01-24T05:01:09.613Z,12.18
2019-01-24T05:02:15.663Z,10.72
2019-01-24T05:03:21.700Z,10.50
2019-01-24T05:04:28.936Z,11.20
2019-01-24T05:05:35.106Z,11.28
2019-01-24T05:06:42.214Z,11.30
2019-01-24T05:07:48.395Z,10.72
2019-01-24T05:08:54.556Z,11.60
2019-01-24T05:10:02.303Z,10.98
2019-01-24T05:11:08.923Z,10.63
2019-01-24T05:12:15.021Z,11.80
2019-01-24T05:13:22.256Z,10.80
2019-01-24T05:14:28.451Z,9.95
2019-01-24T05:15:34.655Z,10.23
2019-01-24T05:16:40.637Z,10.60
2019-01-24T05:17:46.656Z,9.85
2019-01-24T05:18:52.800Z,9.18
2019-01-24T05:19:58.801Z,9.65
2019-01-24T05:21:04.940Z,9.88
2019-01-24T05:22:11.120Z,10.08
2019-01-24T05:23:17.151Z,9.58
2019-01-24T05:24:23.349Z,9.53
2019-01-24T05:25:29.531Z,9.10
2019-01-24T05:26:35.580Z,9.48
2019-01-24T05:27:44.272Z,10.00
2019-01-24T05:28:50.305Z,9.40
2019-01-24T05:29:56.724Z,9.20
2019-01-24T05:31:02.722Z,9.10
2019-01-24T05:32:09.388Z,9.53
2019-01-24T05:33:15.426Z,8.28
2019-01-24T05:34:22.492Z,8.10
2019-01-24T05:35:34.638Z,8.93
2019-01-24T05:36:36.210Z,8.68
2019-01-24T05:37:42.311Z,8.43
2019-01-24T05:38:48.511Z,8.90
2019-01-24T05:39:54.445Z,9.08
2019-01-24T05:41:00.551Z,9.20
2019-01-24T05:42:06.643Z,8.85
2019-01-24T05:43:12.655Z,8.73
2019-01-24T05:44:18.643Z,8.60
2019-01-24T05:45:27.616Z,8.93
2019-01-24T05:46:33.691Z,8.73
2019-01-24T05:47:39.723Z,8.60
2019-01-24T05:48:45.757Z,9.93
2019-01-24T05:49:51.842Z,8.78
2019-01-24T05:50:59.078Z,8.93
2019-01-24T05:52:05.225Z,9.15
2019-01-24T05:53:11.307Z,8.65
2019-01-24T05:54:17.355Z,9.48
2019-01-24T05:55:23.432Z,9.20
2019-01-24T05:56:29.665Z,9.03
2019-01-24T05:57:35.769Z,8.53
2019-01-24T05:58:41.856Z,8.88
2019-01-24T05:59:55.251Z,8.63
2019-01-24T06:01:02.383Z,9.33
2019-01-24T06:02:08.581Z,8.75
2019-01-24T06:03:14.683Z,9.28
2019-01-24T06:04:20.673Z,8.68
2019-01-24T06:05:26.831Z,9.08
2019-01-24T06:06:32.981Z,8.35
2019-01-24T06:07:39.082Z,9.00
2019-01-24T06:08:45.082Z,8.90
2019-01-24T06:09:51.292Z,8.93
2019-01-24T06:10:59.846Z,9.00
2019-01-24T06:12:07.025Z,8.75
2019-01-24T06:13:13.103Z,8.90
2019-01-24T06:14:19.218Z,8.88
2019-01-24T06:15:25.282Z,9.35
2019-01-24T06:16:31.342Z,10.65
2019-01-24T06:17:37.422Z,10.55
2019-01-24T06:18:43.434Z,10.68
2019-01-24T06:19:49.468Z,9.00
2019-01-24T06:20:55.543Z,10.08
2019-01-24T06:22:01.544Z,10.00
2019-01-24T06:23:07.751Z,10.48
2019-01-24T06:24:13.819Z,10.13
2019-01-24T06:25:19.851Z,9.28
2019-01-24T06:26:28.103Z,10.20
2019-01-24T06:27:34.270Z,9.65
2019-01-24T06:28:40.299Z,10.45
2019-01-24T06:29:46.342Z,10.03
2019-01-24T06:30:52.923Z,9.50
2019-01-24T06:32:02.282Z,9.33
2019-01-24T06:33:19.655Z,10.35
2019-01-24T06:34:26.022Z,11.08
2019-01-24T06:35:32.201Z,10.43
2019-01-24T06:36:39.813Z,9.93
2019-01-24T06:37:48.005Z,10.75
2019-01-24T06:38:54.022Z,10.88
2019-01-24T06:40:00.097Z,11.10
2019-01-24T06:41:06.539Z,11.05
2019-01-24T06:42:12.839Z,10.18
2019-01-24T06:43:20.226Z,9.60
2019-01-24T06:44:26.962Z,10.85
2019-01-24T06:45:33.072Z,10.98
2019-01-24T06:46:39.239Z,9.95
2019-01-24T06:47:45.485Z,11.05
2019-01-24T06:48:51.541Z,10.55
2019-01-24T06:49:57.497Z,11.38
2019-01-24T06:51:03.480Z,11.53
2019-01-24T06:52:09.630Z,11.33
2019-01-24T06:53:15.757Z,12.65
2019-01-24T06:54:22.483Z,12.78
2019-01-24T06:55:29.860Z,12.53
2019-01-24T06:56:35.830Z,12.55
2019-01-24T06:57:41.864Z,11.75
2019-01-24T06:58:47.828Z,11.03
2019-01-24T06:59:53.979Z,10.93
2019-01-24T07:01:01.191Z,10.53
2019-01-24T07:02:07.465Z,11.25
2019-01-24T07:03:13.520Z,11.10
2019-01-24T07:04:19.630Z,11.08
2019-01-24T07:05:25.601Z,10.43
2019-01-24T07:06:31.806Z,11.18
2019-01-24T07:07:38.030Z,10.40
2019-01-24T07:08:46.466Z,10.75
2019-01-24T07:09:53.994Z,10.63
2019-01-24T07:11:00.355Z,10.35
2019-01-24T07:12:06.640Z,11.50
2019-01-24T07:13:12.704Z,10.35
2019-01-24T07:14:18.836Z,10.28
2019-01-24T07:15:38.344Z,10.65
2019-01-24T07:16:44.464Z,10.08
2019-01-24T07:17:50.687Z,9.03
2019-01-24T07:18:56.806Z,10.10
2019-01-24T07:20:02.927Z,10.08
2019-01-24T07:21:11.026Z,10.25
2019-01-24T07:22:17.037Z,9.70
2019-01-24T07:23:23.050Z,10.15
2019-01-24T07:24:29.194Z,10.30
2019-01-24T07:25:35.478Z,10.53
2019-01-24T07:26:41.486Z,9.95
2019-01-24T07:27:49.907Z,10.53
2019-01-24T07:28:57.171Z,10.38
2019-01-24T07:30:04.930Z,10.03
2019-01-24T07:31:13.530Z,9.60
2019-01-24T07:32:19.534Z,11.20
2019-01-24T07:33:25.514Z,10.48
2019-01-24T07:34:33.985Z,10.45
2019-01-24T07:35:40.228Z,10.15
2019-01-24T07:36:47.340Z,10.60
2019-01-24T07:37:55.658Z,10.98
2019-01-24T07:39:01.640Z,10.85
2019-01-24T07:40:11.230Z,11.93
2019-01-24T07:41:17.384Z,12.47
2019-01-24T07:42:23.484Z,11.28
2019-01-24T07:43:29.555Z,11.50
2019-01-24T07:44:35.587Z,11.10
2019-01-24T07:45:42.470Z,11.35
2019-01-24T07:46:48.472Z,11.25
2019-01-24T07:47:54.531Z,12.13
2019-01-24T07:49:01.578Z,11.18
2019-01-24T07:50:09.278Z,11.30
2019-01-24T07:51:15.352Z,11.73
2019-01-24T07:52:21.418Z,11.20
2019-01-24T07:53:27.503Z,11.25
2019-01-24T07:54:33.526Z,11.28
2019-01-24T07:55:39.706Z,10.75
2019-01-24T07:56:45.788Z,11.70
2019-01-24T07:57:56.732Z,11.22
2019-01-24T07:59:04.215Z,11.18
2019-01-24T08:00:14.141Z,10.90
2019-01-24T08:01:20.207Z,11.12
2019-01-24T08:02:26.338Z,10.93
2019-01-24T08:03:32.515Z,11.15
2019-01-24T08:04:38.803Z,11.78
2019-01-24T08:05:45.822Z,10.65
2019-01-24T08:06:52.735Z,12.33
2019-01-24T08:07:58.865Z,11.60
2019-01-24T08:09:08.404Z,11.90
2019-01-24T08:10:15.945Z,12.15
2019-01-24T08:11:21.976Z,10.20
2019-01-24T08:12:28.115Z,10.25
2019-01-24T08:13:34.102Z,10.98
2019-01-24T08:14:42.636Z,10.70
2019-01-24T08:15:48.692Z,11.95
2019-01-24T08:16:54.760Z,10.38
2019-01-24T08:18:00.932Z,10.82
2019-01-24T08:19:09.512Z,10.23
2019-01-24T08:20:17.982Z,10.82
2019-01-24T08:21:27.237Z,10.10
2019-01-24T08:22:36.382Z,10.25
2019-01-24T08:23:43.728Z,8.90
2019-01-24T08:24:51.407Z,10.85
2019-01-24T08:25:57.406Z,10.98
2019-01-24T08:27:06.143Z,11.28
2019-01-24T08:28:12.223Z,11.78
2019-01-24T08:29:19.569Z,13.10
2019-01-24T08:30:33.809Z,14.20
2019-01-24T08:31:41.502Z,14.07
2019-01-24T08:32:47.745Z,15.13
2019-01-24T08:33:55.271Z,14.00
2019-01-24T08:35:03.063Z,14.65
2019-01-24T08:36:15.646Z,14.23
2019-01-24T08:37:23.506Z,13.30
2019-01-24T08:38:29.595Z,14.15
2019-01-24T08:39:35.678Z,14.63
2019-01-24T08:40:43.360Z,14.45
2019-01-24T08:41:50.724Z,14.13
2019-01-24T08:42:56.936Z,15.72
2019-01-24T08:44:04.406Z,14.90
2019-01-24T08:45:11.141Z,14.33
2019-01-24T08:46:17.210Z,16.23
2019-01-24T08:47:23.453Z,15.60
2019-01-24T08:48:29.453Z,14.73
2019-01-24T08:49:37.766Z,15.80
2019-01-24T08:50:45.359Z,14.83
2019-01-24T08:51:55.101Z,14.75
2019-01-24T08:53:04.004Z,14.43
2019-01-24T08:54:10.267Z,15.32
2019-01-24T08:55:23.476Z,14.10
2019-01-24T08:56:29.604Z,14.68
2019-01-24T08:57:35.633Z,13.72
2019-01-24T08:58:41.607Z,13.22
2019-01-24T08:59:51.212Z,14.33
2019-01-24T09:00:57.331Z,14.28
2019-01-24T09:02:03.527Z,13.75
2019-01-24T09:03:09.520Z,14.35
2019-01-24T09:04:16.435Z,13.72
2019-01-24T09:05:25.171Z,14.13
2019-01-24T09:06:33.791Z,14.73
2019-01-24T09:07:41.507Z,14.00
2019-01-24T09:08:49.159Z,14.35
2019-01-24T09:09:59.148Z,13.88
2019-01-24T09:11:10.006Z,13.43
2019-01-24T09:12:16.073Z,13.60
2019-01-24T09:13:22.258Z,13.40
2019-01-24T09:14:30.876Z,13.70
2019-01-24T09:15:37.584Z,13.60
2019-01-24T09:16:45.909Z,15.00
2019-01-24T09:17:55.203Z,14.63
2019-01-24T09:19:01.373Z,13.65
2019-01-24T09:20:11.974Z,13.50
2019-01-24T09:21:18.089Z,14.23
2019-01-24T09:22:24.326Z,14.40
2019-01-24T09:23:32.385Z,14.05
2019-01-24T09:24:40.580Z,13.83
2019-01-24T09:25:46.625Z,13.90
2019-01-24T09:26:52.636Z,12.60
2019-01-24T09:28:00.397Z,12.88
2019-01-24T09:29:06.580Z,12.18
2019-01-24T09:30:16.039Z,12.37
2019-01-24T09:31:22.271Z,12.55
2019-01-24T09:32:28.403Z,12.60
2019-01-24T09:33:34.480Z,13.53
2019-01-24T09:34:40.591Z,17.80
2019-01-24T09:35:46.952Z,20.95
2019-01-24T09:36:53.137Z,19.32
2019-01-24T09:37:59.486Z,18.92
2019-01-24T09:39:10.359Z,15.53
2019-01-24T09:40:17.135Z,12.70
2019-01-24T09:41:23.255Z,11.57
2019-01-24T09:42:29.347Z,11.25
2019-01-24T09:43:36.872Z,10.85
2019-01-24T09:44:43.043Z,11.30
2019-01-24T09:45:53.092Z,12.07
2019-01-24T09:47:00.129Z,13.03
2019-01-24T09:48:07.313Z,11.97
2019-01-24T09:49:15.689Z,10.60
2019-01-24T09:50:23.182Z,11.25
2019-01-24T09:51:29.227Z,9.93
2019-01-24T09:52:37.241Z,10.50
2019-01-24T09:53:44.299Z,9.23
2019-01-24T09:54:50.344Z,10.15
2019-01-24T09:55:56.383Z,9.70
2019-01-24T09:57:02.502Z,8.80
2019-01-24T09:58:08.746Z,8.33
2019-01-24T09:59:15.070Z,10.13
2019-01-24T10:00:26.843Z,9.60
2019-01-24T10:01:32.982Z,10.30
2019-01-24T10:02:38.984Z,9.23
2019-01-24T10:03:46.675Z,9.33
2019-01-24T10:04:54.273Z,9.38
2019-01-24T10:06:00.292Z,9.60
2019-01-24T10:07:08.586Z,10.40
2019-01-24T10:08:16.221Z,9.98
2019-01-24T10:09:22.361Z,9.68
2019-01-24T10:10:28.997Z,11.88
2019-01-24T10:11:37.583Z,11.65
2019-01-24T10:12:44.144Z,9.53
2019-01-24T10:13:50.067Z,9.13
2019-01-24T10:14:59.881Z,8.65
2019-01-24T10:16:06.126Z,9.43
2019-01-24T10:17:12.352Z,9.60
2019-01-24T10:18:21.701Z,8.98
2019-01-24T10:19:26.185Z,8.90
2019-01-24T10:20:32.451Z,9.48
2019-01-24T10:21:38.517Z,9.08
2019-01-24T10:22:44.715Z,8.98
2019-01-24T10:23:52.118Z,9.53
2019-01-24T10:25:01.945Z,9.45
2019-01-24T10:26:08.372Z,10.13
2019-01-24T10:27:15.417Z,11.22
2019-01-24T10:28:21.442Z,10.53
2019-01-24T10:29:27.676Z,10.80
2019-01-24T10:30:33.950Z,11.00
2019-01-24T10:31:40.232Z,11.28
2019-01-24T10:32:46.510Z,11.30
2019-01-24T10:33:52.593Z,10.80
2019-01-24T10:34:58.734Z,11.93
2019-01-24T10:36:04.932Z,11.22
2019-01-24T10:37:10.926Z,10.68
2019-01-24T10:38:17.041Z,9.98
2019-01-24T10:39:23.079Z,10.70
2019-01-24T10:40:31.281Z,9.80
2019-01-24T10:41:37.333Z,8.78
2019-01-24T10:42:46.154Z,9.58
2019-01-24T10:43:52.408Z,10.30
2019-01-24T10:44:58.436Z,10.10
2019-01-24T10:46:04.901Z,9.45
2019-01-24T10:47:10.916Z,8.88
2019-01-24T10:48:17.021Z,8.90
2019-01-24T10:49:23.057Z,9.25
2019-01-24T10:50:29.375Z,8.33
2019-01-24T10:51:35.475Z,8.70
2019-01-24T10:52:41.531Z,9.65
2019-01-24T10:53:47.683Z,9.13
2019-01-24T10:54:53.798Z,9.83
2019-01-24T10:55:59.846Z,8.83
2019-01-24T10:57:08.243Z,10.08
2019-01-24T10:58:14.356Z,8.85
2019-01-24T10:59:20.527Z,8.83
2019-01-24T11:00:35.495Z,9.50
2019-01-24T11:01:41.639Z,8.53
2019-01-24T11:02:47.888Z,10.00
2019-01-24T11:03:54.161Z,9.58
2019-01-24T11:05:00.251Z,9.60
2019-01-24T11:06:07.990Z,9.85
2019-01-24T11:07:14.035Z,9.93
2019-01-24T11:08:20.219Z,10.75
2019-01-24T11:09:26.365Z,10.98
2019-01-24T11:10:32.961Z,10.18
2019-01-24T11:11:39.124Z,10.88
2019-01-24T11:12:45.224Z,10.58
2019-01-24T11:13:52.635Z,11.38
2019-01-24T11:14:58.757Z,10.93
2019-01-24T11:16:05.084Z,10.35
2019-01-24T11:17:11.232Z,10.55
2019-01-24T11:18:17.534Z,10.38
2019-01-24T11:19:23.608Z,10.68
2019-01-24T11:20:30.018Z,11.35
2019-01-24T11:21:36.074Z,10.18
2019-01-24T11:22:42.245Z,10.15
2019-01-24T11:23:48.379Z,10.72
2019-01-24T11:24:54.423Z,10.10
2019-01-24T11:26:00.405Z,10.63
2019-01-24T11:27:06.640Z,9.65
2019-01-24T11:28:12.876Z,10.93
2019-01-24T11:29:19.876Z,11.57
2019-01-24T11:30:27.714Z,9.50
2019-01-24T11:31:36.732Z,9.28
2019-01-24T11:32:42.966Z,8.55
2019-01-24T11:33:49.118Z,8.93
2019-01-24T11:34:55.143Z,9.63
2019-01-24T11:36:01.397Z,10.95
2019-01-24T11:37:07.471Z,11.18
2019-01-24T11:38:14.003Z,9.90
2019-01-24T11:39:19.997Z,9.40
2019-01-24T11:40:26.428Z,10.28
2019-01-24T11:41:32.426Z,9.80
2019-01-24T11:42:38.551Z,8.40
2019-01-24T11:43:46.187Z,8.50
2019-01-24T11:44:52.122Z,9.10
2019-01-24T11:45:58.080Z,9.03
2019-01-24T11:47:04.298Z,8.75
2019-01-24T11:48:10.628Z,8.70
2019-01-24T11:49:16.826Z,8.80
2019-01-24T11:50:23.027Z,8.58
2019-01-24T11:51:29.153Z,8.50
2019-01-24T11:52:36.063Z,9.70
2019-01-24T11:53:42.243Z,9.38
2019-01-24T11:54:48.290Z,8.55
2019-01-24T11:55:55.806Z,8.60
2019-01-24T11:57:02.123Z,9.48
2019-01-24T11:58:09.649Z,9.18
2019-01-24T11:59:15.720Z,8.28
2019-01-24T12:00:35.733Z,7.72
2019-01-24T12:01:41.868Z,9.38
2019-01-24T12:02:48.124Z,8.98
2019-01-24T12:03:54.626Z,8.08
2019-01-24T12:05:00.705Z,8.65
2019-01-24T12:06:07.031Z,8.45
2019-01-24T12:07:16.025Z,7.75
2019-01-24T12:08:22.171Z,8.55
2019-01-24T12:09:28.270Z,8.43
2019-01-24T12:10:34.257Z,8.60
2019-01-24T12:11:40.323Z,9.65
2019-01-24T12:12:46.513Z,8.80
2019-01-24T12:13:52.721Z,9.28
2019-01-24T12:14:58.778Z,8.63
2019-01-24T12:16:04.886Z,8.73
2019-01-24T12:17:11.063Z,9.23
2019-01-24T12:18:17.180Z,9.08
2019-01-24T12:19:23.339Z,8.43
2019-01-24T12:20:29.695Z,8.10
2019-01-24T12:21:35.736Z,8.95
2019-01-24T12:22:41.803Z,7.58
2019-01-24T12:23:47.925Z,8.50
2019-01-24T12:24:53.958Z,8.25
2019-01-24T12:26:00.146Z,6.67
2019-01-24T12:27:06.342Z,8.48
2019-01-24T12:28:12.311Z,8.18
2019-01-24T12:29:18.406Z,7.87
2019-01-24T12:30:26.564Z,8.38
2019-01-24T12:31:33.785Z,8.28
2019-01-24T12:32:39.853Z,8.65
2019-01-24T12:33:46.333Z,10.25
2019-01-24T12:34:54.373Z,12.47
2019-01-24T12:36:00.563Z,8.13
2019-01-24T12:37:11.298Z,8.70
2019-01-24T12:38:14.475Z,8.70
2019-01-24T12:39:20.510Z,8.30
2019-01-24T12:40:26.672Z,7.87
2019-01-24T12:41:35.079Z,8.38
2019-01-24T12:42:41.371Z,8.65
2019-01-24T12:43:47.662Z,8.45
2019-01-24T12:44:53.681Z,8.48
2019-01-24T12:46:01.135Z,8.53
2019-01-24T12:47:07.150Z,9.53
2019-01-24T12:48:13.356Z,8.75
2019-01-24T12:49:19.403Z,9.33
2019-01-24T12:50:26.022Z,10.50
2019-01-24T12:51:32.183Z,10.18
2019-01-24T12:52:38.196Z,9.73
2019-01-24T12:53:44.265Z,9.95
2019-01-24T12:54:50.669Z,10.35
2019-01-24T12:55:56.694Z,10.43
2019-01-24T12:57:02.901Z,10.55
2019-01-24T12:58:09.036Z,10.60
2019-01-24T12:59:15.321Z,10.50
2019-01-24T13:00:32.771Z,10.30
2019-01-24T13:01:38.731Z,13.22
2019-01-24T13:02:44.919Z,13.05
2019-01-24T13:03:51.540Z,12.78
2019-01-24T13:04:57.592Z,11.45
2019-01-24T13:06:03.742Z,11.08
2019-01-24T13:07:10.197Z,10.75
2019-01-24T13:08:16.282Z,11.30
2019-01-24T13:09:22.322Z,11.85
2019-01-24T13:10:28.984Z,11.30
2019-01-24T13:11:37.473Z,10.20
2019-01-24T13:12:43.812Z,10.53
2019-01-24T13:13:53.782Z,9.40
2019-01-24T13:14:59.824Z,9.28
2019-01-24T13:16:06.211Z,10.05
2019-01-24T13:17:12.473Z,10.58
2019-01-24T13:18:18.798Z,10.65
2019-01-24T13:19:25.028Z,9.58
2019-01-24T13:20:31.245Z,8.70
2019-01-24T13:21:37.377Z,8.70
2019-01-24T13:22:44.988Z,9.05
2019-01-24T13:23:53.270Z,8.48
2019-01-24T13:24:59.283Z,8.75
2019-01-24T13:26:05.719Z,9.03
2019-01-24T13:27:11.907Z,8.45
2019-01-24T13:28:18.143Z,8.93
2019-01-24T13:29:24.381Z,9.20
2019-01-24T13:30:32.273Z,9.98
2019-01-24T13:31:39.825Z,10.68
2019-01-24T13:32:45.922Z,10.18
2019-01-24T13:33:52.071Z,9.73
2019-01-24T13:34:58.173Z,8.85
2019-01-24T13:36:04.368Z,8.05
2019-01-24T13:37:10.640Z,8.28
2019-01-24T13:38:16.803Z,9.23
2019-01-24T13:39:22.924Z,8.25
2019-01-24T13:40:30.913Z,8.65
2019-01-24T13:41:42.391Z,10.15
2019-01-24T13:42:48.959Z,10.30
2019-01-24T13:43:55.090Z,10.90
2019-01-24T13:45:01.173Z,11.48
2019-01-24T13:46:07.382Z,15.70
2019-01-24T13:47:14.461Z,11.68
2019-01-24T13:48:20.457Z,10.45
2019-01-24T13:49:26.649Z,10.45
2019-01-24T13:50:32.741Z,10.08
2019-01-24T13:51:38.856Z,10.13
2019-01-24T13:52:45.482Z,9.85
2019-01-24T13:53:51.598Z,11.70
2019-01-24T13:54:57.742Z,11.53
2019-01-24T13:56:05.792Z,11.90
2019-01-24T13:57:11.841Z,12.53
2019-01-24T13:58:20.040Z,11.90
2019-01-24T13:59:26.083Z,10.93
2019-01-24T14:00:34.657Z,10.88
2019-01-24T14:01:40.878Z,11.00
2019-01-24T14:02:48.278Z,10.85
2019-01-24T14:04:04.102Z,10.15
2019-01-24T14:05:13.591Z,10.45
2019-01-24T14:06:19.692Z,11.73
2019-01-24T14:07:25.730Z,10.70
2019-01-24T14:08:31.902Z,11.75
2019-01-24T14:09:37.961Z,10.98
2019-01-24T14:10:44.004Z,13.03
2019-01-24T14:11:50.099Z,13.18
2019-01-24T14:12:56.102Z,13.25
2019-01-24T14:14:02.259Z,12.90
2019-01-24T14:15:11.193Z,13.53
2019-01-24T14:16:17.293Z,17.50
2019-01-24T14:17:23.353Z,14.18
2019-01-24T14:18:29.631Z,14.65
2019-01-24T14:19:36.669Z,13.62
2019-01-24T14:20:42.771Z,13.80
2019-01-24T14:21:48.823Z,13.80
2019-01-24T14:22:55.043Z,13.18
2019-01-24T14:24:01.185Z,12.45
2019-01-24T14:25:09.941Z,13.10
2019-01-24T14:26:16.002Z,12.18
2019-01-24T14:27:22.046Z,11.08